createdAt,value
2022-09-21T00:02:16.095Z,9.73
2022-09-21T00:04:42.592Z,8.87
2022-09-21T00:07:08.963Z,9.07
2022-09-21T00:09:35.358Z,7.53
2022-09-21T00:12:02.585Z,8.57
2022-09-21T00:14:28.958Z,8.07
2022-09-21T00:16:55.451Z,10.60
2022-09-21T00:19:22.151Z,6.57
2022-09-21T00:21:49.011Z,8.43
2022-09-21T00:24:15.542Z,9.87
2022-09-21T00:26:41.919Z,10.63
2022-09-21T00:29:08.334Z,7.50
2022-09-21T00:31:35.312Z,8.63
2022-09-21T00:34:03.600Z,11.97
2022-09-21T00:36:30.109Z,8.47
2022-09-21T00:38:58.769Z,8.97
2022-09-21T00:41:25.578Z,10.73
2022-09-21T00:44:10.818Z,7.07
2022-09-21T00:46:39.128Z,8.73
2022-09-21T00:49:05.839Z,9.73
2022-09-21T00:51:32.302Z,9.27
2022-09-21T00:54:01.174Z,10.70
2022-09-21T00:56:27.994Z,11.00
2022-09-21T00:58:54.984Z,11.77
2022-09-21T01:01:22.220Z,8.07
2022-09-21T01:03:50.375Z,11.70
2022-09-21T01:06:17.810Z,10.23
2022-09-21T01:08:45.213Z,8.30
2022-09-21T01:11:14.703Z,12.10
2022-09-21T01:13:54.691Z,12.97
2022-09-21T01:16:35.028Z,11.37
2022-09-21T01:19:26.746Z,9.67
2022-09-21T01:22:04.617Z,9.67
2022-09-21T01:24:42.951Z,7.87
2022-09-21T01:27:09.331Z,11.47
2022-09-21T01:29:35.649Z,8.80
2022-09-21T01:32:05.464Z,10.20
2022-09-21T01:34:47.746Z,6.97
2022-09-21T01:37:17.582Z,9.37
2022-09-21T01:39:46.842Z,15.77
2022-09-21T01:42:14.130Z,9.27
2022-09-21T01:44:43.123Z,10.97
2022-09-21T01:47:12.720Z,13.57
2022-09-21T01:49:41.695Z,10.67
2022-09-21T01:52:17.551Z,11.20
2022-09-21T01:54:47.874Z,13.63
2022-09-21T01:57:32.412Z,9.33
2022-09-21T02:00:00.086Z,9.33
2022-09-21T02:02:29.414Z,12.17
2022-09-21T02:04:55.895Z,8.67
2022-09-21T02:07:22.299Z,7.97
2022-09-21T02:09:48.692Z,8.93
2022-09-21T02:12:18.902Z,9.53
2022-09-21T02:14:45.939Z,8.07
2022-09-21T02:17:15.291Z,13.50
2022-09-21T02:19:55.907Z,10.37
2022-09-21T02:22:34.386Z,9.50
2022-09-21T02:25:03.739Z,9.80
2022-09-21T02:27:30.056Z,5.63
2022-09-21T02:30:01.831Z,10.90
2022-09-21T02:32:35.179Z,7.33
2022-09-21T02:35:01.506Z,6.77
2022-09-21T02:37:48.121Z,9.57
2022-09-21T02:40:29.048Z,10.70
2022-09-21T02:43:00.273Z,7.97
2022-09-21T02:45:28.319Z,8.73
2022-09-21T02:48:00.193Z,10.43
2022-09-21T02:50:46.829Z,9.00
2022-09-21T02:53:15.498Z,8.37
2022-09-21T02:55:42.478Z,9.27
2022-09-21T02:58:12.632Z,8.27
2022-09-21T03:00:39.316Z,8.10
2022-09-21T03:03:17.316Z,12.13
2022-09-21T03:05:48.625Z,7.50
2022-09-21T03:08:15.665Z,7.87
2022-09-21T03:10:42.102Z,11.20
2022-09-21T03:13:11.626Z,9.30
2022-09-21T03:15:38.671Z,8.77
2022-09-21T03:18:05.810Z,5.60
2022-09-21T03:20:33.170Z,11.77
2022-09-21T03:22:59.881Z,12.53
2022-09-21T03:25:26.842Z,11.30
2022-09-21T03:27:56.101Z,11.43
2022-09-21T03:30:23.949Z,10.87
2022-09-21T03:32:51.212Z,8.50
2022-09-21T03:35:18.461Z,9.80
2022-09-21T03:37:46.322Z,10.80
2022-09-21T03:40:12.885Z,9.87
2022-09-21T03:42:40.455Z,16.23
2022-09-21T03:45:07.319Z,8.87
2022-09-21T03:47:34.146Z,11.03
2022-09-21T03:50:00.583Z,9.03
2022-09-21T03:52:27.022Z,14.73
2022-09-21T03:54:54.990Z,10.60
2022-09-21T03:57:21.546Z,10.67
2022-09-21T03:59:49.058Z,13.37
2022-09-21T04:02:16.273Z,9.30
2022-09-21T04:04:42.745Z,9.53
2022-09-21T04:07:09.163Z,8.67
2022-09-21T04:09:35.607Z,10.97
2022-09-21T04:12:02.262Z,15.83
2022-09-21T04:14:29.846Z,10.30
2022-09-21T04:16:56.702Z,9.23
2022-09-21T04:19:23.096Z,13.27
2022-09-21T04:21:51.412Z,10.40
2022-09-21T04:24:19.337Z,11.43
2022-09-21T04:26:46.176Z,10.67
2022-09-21T04:29:13.589Z,10.83
2022-09-21T04:31:39.957Z,11.80
2022-09-21T04:34:06.589Z,11.00
2022-09-21T04:36:36.512Z,12.87
2022-09-21T04:39:04.099Z,14.10
2022-09-21T04:41:30.575Z,12.70
2022-09-21T04:43:57.228Z,14.13
2022-09-21T04:46:26.578Z,13.10
2022-09-21T04:48:53.197Z,10.37
2022-09-21T04:51:19.556Z,10.60
2022-09-21T04:53:45.977Z,12.30
2022-09-21T04:56:14.200Z,10.80
2022-09-21T04:58:40.597Z,9.70
2022-09-21T05:01:07.777Z,9.73
2022-09-21T05:03:34.631Z,10.93
2022-09-21T05:06:01.808Z,9.07
2022-09-21T05:08:46.694Z,11.87
2022-09-21T05:11:14.630Z,12.87
2022-09-21T05:13:41.594Z,11.30
2022-09-21T05:16:08.136Z,16.23
2022-09-21T05:18:34.853Z,11.37
2022-09-21T05:21:01.853Z,12.77
2022-09-21T05:23:29.657Z,13.03
2022-09-21T05:25:56.157Z,13.40
2022-09-21T05:28:23.097Z,11.87
2022-09-21T05:31:17.974Z,9.37
2022-09-21T05:33:50.610Z,12.93
2022-09-21T05:36:29.550Z,11.20
2022-09-21T05:38:56.963Z,12.77
2022-09-21T05:41:23.557Z,9.90
2022-09-21T05:43:49.978Z,11.73
2022-09-21T05:46:25.324Z,13.77
2022-09-21T05:49:02.998Z,12.00
2022-09-21T05:51:35.485Z,10.47
2022-09-21T05:54:01.902Z,9.90
2022-09-21T05:56:34.286Z,14.13
2022-09-21T05:59:13.001Z,14.77
2022-09-21T06:01:39.365Z,12.93
2022-09-21T06:04:09.656Z,11.57
2022-09-21T06:06:35.976Z,10.47
2022-09-21T06:09:02.316Z,15.60
2022-09-21T06:11:28.706Z,12.00
2022-09-21T06:13:55.213Z,12.17
2022-09-21T06:16:21.743Z,10.93
2022-09-21T06:18:48.133Z,13.50
2022-09-21T06:21:14.472Z,11.33
2022-09-21T06:23:40.827Z,12.97
2022-09-21T06:26:07.226Z,14.20
2022-09-21T06:28:33.611Z,12.87
2022-09-21T06:31:00.018Z,12.53
2022-09-21T06:33:26.542Z,10.97
2022-09-21T06:35:56.994Z,11.37
2022-09-21T06:38:23.833Z,11.13
2022-09-21T06:40:50.744Z,13.90
2022-09-21T06:43:17.490Z,25.47
2022-09-21T06:45:44.065Z,12.73
2022-09-21T06:48:10.482Z,11.70
2022-09-21T06:50:36.827Z,14.63
2022-09-21T06:53:03.708Z,12.97
2022-09-21T06:55:31.161Z,17.23
2022-09-21T06:58:03.598Z,13.63
2022-09-21T07:00:30.524Z,19.63
2022-09-21T07:02:56.944Z,14.27
2022-09-21T07:05:23.537Z,19.27
2022-09-21T07:07:53.681Z,18.77
2022-09-21T07:10:20.827Z,17.93
2022-09-21T07:12:47.449Z,20.20
2022-09-21T07:15:13.887Z,17.47
2022-09-21T07:17:40.338Z,14.17
2022-09-21T07:20:08.001Z,21.83
2022-09-21T07:22:35.217Z,18.47
2022-09-21T07:25:01.810Z,17.97
2022-09-21T07:27:29.500Z,19.50
2022-09-21T07:29:55.842Z,18.60
2022-09-21T07:32:22.230Z,17.27
2022-09-21T07:34:48.629Z,25.60
2022-09-21T07:37:15.278Z,16.07
2022-09-21T07:39:41.676Z,13.93
2022-09-21T07:42:08.248Z,14.30
2022-09-21T07:44:34.557Z,18.10
2022-09-21T07:47:01.954Z,16.83
2022-09-21T07:49:28.367Z,15.10
2022-09-21T07:51:54.746Z,15.93
2022-09-21T07:54:21.055Z,17.00
2022-09-21T07:57:07.354Z,14.27
2022-09-21T07:59:33.766Z,13.47
2022-09-21T08:02:00.475Z,15.77
2022-09-21T08:04:27.578Z,18.77
2022-09-21T08:06:53.986Z,18.90
2022-09-21T08:09:20.337Z,14.73
2022-09-21T08:11:47.143Z,16.83
2022-09-21T08:14:22.421Z,12.67
2022-09-21T08:16:52.435Z,14.70
2022-09-21T08:19:19.308Z,12.97
2022-09-21T08:21:52.387Z,10.30
2022-09-21T08:24:21.387Z,12.27
2022-09-21T08:26:48.389Z,10.67
2022-09-21T08:29:14.759Z,13.20
2022-09-21T08:31:41.218Z,15.00
2022-09-21T08:34:07.815Z,11.97
2022-09-21T08:36:34.450Z,11.37
2022-09-21T08:39:01.406Z,9.70
2022-09-21T08:41:46.467Z,9.37
2022-09-21T08:44:24.629Z,9.83
2022-09-21T08:47:06.679Z,8.90
2022-09-21T08:49:35.289Z,6.00
2022-09-21T08:52:09.132Z,5.77
2022-09-21T08:54:38.594Z,10.97
2022-09-21T08:57:06.078Z,4.53
2022-09-21T08:59:33.713Z,5.90
2022-09-21T09:02:20.536Z,7.30
2022-09-21T09:04:56.384Z,6.80
2022-09-21T09:07:34.877Z,4.97
2022-09-21T09:10:01.185Z,4.53
2022-09-21T09:12:46.615Z,5.90
2022-09-21T09:15:12.945Z,15.27
2022-09-21T09:17:42.585Z,6.60
2022-09-21T09:20:21.258Z,5.97
2022-09-21T09:22:53.668Z,8.17
2022-09-21T09:25:24.576Z,5.63
2022-09-21T09:27:53.950Z,7.43
2022-09-21T09:30:20.679Z,6.43
2022-09-21T09:32:49.623Z,6.50
2022-09-21T09:35:19.802Z,6.53
2022-09-21T09:37:47.214Z,9.00
2022-09-21T09:40:14.483Z,5.70
2022-09-21T09:42:40.894Z,7.30
2022-09-21T09:45:26.387Z,6.57
2022-09-21T09:48:10.871Z,12.90
2022-09-21T09:50:41.491Z,6.33
2022-09-21T09:53:19.085Z,3.90
2022-09-21T09:55:47.892Z,6.87
2022-09-21T09:58:27.219Z,6.07
2022-09-21T10:00:54.628Z,6.00
2022-09-21T10:03:26.554Z,4.57
2022-09-21T10:05:53.239Z,6.53
2022-09-21T10:08:39.269Z,3.67
2022-09-21T10:11:06.023Z,3.83
2022-09-21T10:13:36.464Z,2.23
2022-09-21T10:16:14.916Z,5.13
2022-09-21T10:18:46.442Z,3.97
2022-09-21T10:21:23.358Z,6.43
2022-09-21T10:23:52.350Z,5.47
2022-09-21T10:26:19.379Z,4.90
2022-09-21T10:28:59.329Z,2.80
2022-09-21T10:31:27.133Z,3.43
2022-09-21T10:34:12.325Z,4.23
2022-09-21T10:36:38.947Z,3.37
2022-09-21T10:39:11.378Z,4.63
2022-09-21T10:41:37.843Z,2.47
2022-09-21T10:44:04.371Z,2.00
2022-09-21T10:46:35.715Z,2.57
2022-09-21T10:49:02.802Z,1.97
2022-09-21T10:51:30.363Z,5.67
2022-09-21T10:53:57.338Z,2.90
2022-09-21T10:56:23.737Z,2.73
2022-09-21T10:59:08.837Z,3.73
2022-09-21T11:01:35.253Z,3.67
2022-09-21T11:04:11.753Z,3.43
2022-09-21T11:06:41.103Z,1.77
2022-09-21T11:09:07.399Z,1.93
2022-09-21T11:11:33.776Z,1.57
2022-09-21T11:14:11.322Z,1.90
2022-09-21T11:16:45.448Z,2.73
2022-09-21T11:19:17.569Z,1.40
2022-09-21T11:22:01.190Z,2.60
2022-09-21T11:24:36.797Z,2.17
2022-09-21T11:27:36.005Z,1.37
2022-09-21T11:30:07.205Z,1.70
2022-09-21T11:32:40.405Z,1.03
2022-09-21T11:35:27.042Z,1.83
2022-09-21T11:38:13.119Z,23.27
2022-09-21T11:40:51.079Z,11.67
2022-09-21T11:43:29.204Z,2.23
2022-09-21T11:46:12.942Z,0.80
2022-09-21T11:48:42.854Z,1.40
2022-09-21T11:51:28.077Z,2.00
2022-09-21T11:54:04.231Z,0.80
2022-09-21T11:56:43.480Z,0.70
2022-09-21T11:59:16.233Z,1.23
2022-09-21T12:01:48.448Z,0.77
2022-09-21T12:04:25.960Z,6.77
2022-09-21T12:06:52.303Z,1.37
2022-09-21T12:09:24.931Z,1.93
2022-09-21T12:11:59.147Z,2.53
2022-09-21T12:14:34.521Z,1.57
2022-09-21T12:17:01.506Z,0.77
2022-09-21T12:19:42.292Z,1.30
2022-09-21T12:22:28.816Z,0.90
2022-09-21T12:25:12.641Z,2.57
2022-09-21T12:27:44.614Z,2.83
2022-09-21T12:30:13.343Z,1.00
2022-09-21T12:32:47.436Z,0.70
2022-09-21T12:35:15.430Z,0.80
2022-09-21T12:37:47.217Z,2.50
2022-09-21T12:40:20.245Z,4.50
2022-09-21T12:42:46.670Z,3.23
2022-09-21T12:45:17.131Z,2.57
2022-09-21T12:47:56.883Z,1.10
2022-09-21T12:50:27.471Z,2.03
2022-09-21T12:52:55.026Z,1.40
2022-09-21T12:55:33.913Z,0.93
2022-09-21T12:58:17.401Z,0.80
2022-09-21T13:00:56.804Z,1.77
2022-09-21T13:03:36.209Z,3.47
2022-09-21T13:06:20.620Z,1.60
2022-09-21T13:08:47.359Z,1.00
2022-09-21T13:11:20.964Z,0.93
2022-09-21T13:13:52.955Z,3.17
2022-09-21T13:16:29.882Z,1.27
2022-09-21T13:19:04.171Z,3.30
2022-09-21T13:21:32.152Z,2.80
2022-09-21T13:24:06.111Z,1.33
2022-09-21T13:26:42.912Z,1.53
2022-09-21T13:29:22.223Z,2.60
2022-09-21T13:32:01.211Z,1.70
2022-09-21T13:34:29.356Z,2.43
2022-09-21T13:37:14.620Z,1.43
2022-09-21T13:39:45.091Z,1.70
2022-09-21T13:42:30.223Z,0.87
2022-09-21T13:44:58.057Z,3.13
2022-09-21T13:47:34.990Z,1.67
2022-09-21T13:50:12.610Z,2.23
2022-09-21T13:52:48.114Z,0.83
2022-09-21T13:55:33.029Z,2.00
2022-09-21T13:58:07.944Z,3.37
2022-09-21T14:00:36.162Z,2.00
2022-09-21T14:03:04.700Z,0.93
2022-09-21T14:05:45.282Z,2.53
2022-09-21T14:08:14.639Z,1.20
2022-09-21T14:10:50.655Z,0.97
2022-09-21T14:13:28.567Z,3.07
2022-09-21T14:15:54.995Z,2.50
2022-09-21T14:18:34.884Z,1.53
2022-09-21T14:21:17.539Z,1.80
2022-09-21T14:24:16.223Z,2.67
2022-09-21T14:26:42.708Z,1.37
2022-09-21T14:29:15.643Z,3.40
2022-09-21T14:31:42.096Z,28.33
2022-09-21T14:34:12.821Z,5.23
2022-09-21T14:36:42.262Z,1.73
2022-09-21T14:39:23.802Z,2.70
2022-09-21T14:41:52.258Z,2.10
2022-09-21T14:44:22.922Z,2.60
2022-09-21T14:46:59.701Z,3.17
2022-09-21T14:49:41.263Z,1.97
2022-09-21T14:52:32.175Z,2.80
2022-09-21T14:55:20.663Z,4.17
2022-09-21T14:58:14.355Z,2.87
2022-09-21T15:00:44.836Z,2.20
2022-09-21T15:03:19.216Z,3.17
2022-09-21T15:05:53.239Z,2.03
2022-09-21T15:08:38.181Z,1.97
2022-09-21T15:11:27.183Z,3.05
2022-09-21T15:14:12.706Z,1.70
2022-09-21T15:16:53.983Z,2.50
2022-09-21T15:19:20.296Z,1.45
2022-09-21T15:21:47.789Z,3.55
2022-09-21T15:24:21.589Z,2.03
2022-09-21T15:26:49.544Z,2.67
2022-09-21T15:29:42.321Z,2.08
2022-09-21T15:32:08.755Z,2.67
2022-09-21T15:34:35.190Z,1.67
2022-09-21T15:37:12.190Z,3.23
2022-09-21T15:39:38.555Z,4.10
2022-09-21T15:42:08.020Z,3.63
2022-09-21T15:44:34.774Z,1.87
2022-09-21T15:47:03.426Z,3.50
2022-09-21T15:49:30.018Z,2.17
2022-09-21T15:51:56.634Z,1.57
2022-09-21T15:54:30.034Z,3.03
2022-09-21T15:56:56.665Z,1.57
2022-09-21T15:59:23.310Z,1.73
2022-09-21T16:01:52.644Z,1.93
2022-09-21T16:04:21.951Z,4.57
2022-09-21T16:06:58.571Z,4.33
2022-09-21T16:09:28.962Z,2.60
2022-09-21T16:11:55.982Z,2.30
2022-09-21T16:14:41.705Z,2.00
2022-09-21T16:17:13.938Z,2.60
2022-09-21T16:19:44.551Z,3.60
2022-09-21T16:22:14.984Z,1.73
2022-09-21T16:25:00.671Z,1.30
2022-09-21T16:27:28.826Z,2.10
2022-09-21T16:29:55.998Z,4.23
2022-09-21T16:32:32.073Z,4.17
2022-09-21T16:35:17.049Z,2.97
2022-09-21T16:37:43.805Z,3.20
2022-09-21T16:40:10.184Z,2.57
2022-09-21T16:42:36.594Z,2.60
2022-09-21T16:45:09.205Z,3.60
2022-09-21T16:47:36.909Z,5.50
2022-09-21T16:50:06.977Z,3.03
2022-09-21T16:52:33.364Z,2.30
2022-09-21T16:54:59.841Z,3.17
2022-09-21T16:57:26.592Z,3.13
2022-09-21T16:59:52.964Z,3.30
2022-09-21T17:02:19.360Z,3.30
2022-09-21T17:04:45.788Z,7.80
2022-09-21T17:07:12.926Z,3.27
2022-09-21T17:09:41.970Z,4.27
2022-09-21T17:12:11.012Z,2.93
2022-09-21T17:14:41.867Z,2.47
2022-09-21T17:17:12.422Z,4.33
2022-09-21T17:19:40.868Z,3.27
2022-09-21T17:22:10.151Z,3.23
2022-09-21T17:24:50.146Z,3.33
2022-09-21T17:27:20.080Z,4.83
2022-09-21T17:29:49.877Z,2.77
2022-09-21T17:32:20.584Z,3.10
2022-09-21T17:34:50.128Z,4.57
2022-09-21T17:37:16.521Z,4.07
2022-09-21T17:39:43.249Z,5.73
2022-09-21T17:42:17.848Z,4.50
2022-09-21T17:44:44.294Z,3.83
2022-09-21T17:47:22.152Z,4.80
2022-09-21T17:49:48.605Z,6.47
2022-09-21T17:52:35.171Z,5.80
2022-09-21T17:55:05.915Z,8.13
2022-09-21T17:57:43.150Z,5.93
2022-09-21T18:00:20.281Z,5.43
2022-09-21T18:02:47.170Z,7.27
2022-09-21T18:05:33.798Z,5.57
2022-09-21T18:08:02.594Z,3.07
2022-09-21T18:10:30.456Z,82.23
2022-09-21T18:13:15.658Z,28.60
2022-09-21T18:15:44.984Z,9.63
2022-09-21T18:18:18.815Z,10.37
2022-09-21T18:21:02.138Z,4.50
2022-09-21T18:23:33.181Z,6.27
2022-09-21T18:26:00.548Z,6.63
2022-09-21T18:28:39.553Z,7.20
2022-09-21T18:31:12.431Z,6.30
2022-09-21T18:34:01.954Z,10.17
2022-09-21T18:36:34.834Z,7.43
2022-09-21T18:39:01.406Z,8.47
2022-09-21T18:41:34.345Z,9.87
2022-09-21T18:44:05.232Z,9.00
2022-09-21T18:46:55.152Z,6.93
2022-09-21T18:49:29.235Z,9.20
2022-09-21T18:52:14.046Z,9.83
2022-09-21T18:54:41.117Z,10.03
2022-09-21T18:57:14.879Z,8.90
2022-09-21T18:59:41.750Z,8.83
2022-09-21T19:02:14.174Z,7.20
2022-09-21T19:04:41.742Z,13.13
2022-09-21T19:07:23.811Z,14.60
2022-09-21T19:10:09.038Z,10.23
2022-09-21T19:12:47.922Z,9.97
2022-09-21T19:15:17.678Z,9.70
2022-09-21T19:17:59.315Z,9.77
2022-09-21T19:20:36.470Z,12.40
2022-09-21T19:23:18.025Z,14.23
2022-09-21T19:25:48.809Z,11.43
2022-09-21T19:28:46.704Z,12.17
2022-09-21T19:31:14.721Z,11.73
2022-09-21T19:33:56.437Z,12.03
2022-09-21T19:36:24.243Z,11.73
2022-09-21T19:38:50.795Z,10.63
2022-09-21T19:41:26.339Z,11.47
2022-09-21T19:44:01.267Z,10.90
2022-09-21T19:46:37.616Z,17.83
2022-09-21T19:49:12.519Z,12.67
2022-09-21T19:51:45.710Z,16.00
2022-09-21T19:54:34.586Z,16.07
2022-09-21T19:57:19.913Z,13.60
2022-09-21T19:59:47.301Z,15.80
2022-09-21T20:02:20.523Z,14.80
2022-09-21T20:04:56.290Z,19.20
2022-09-21T20:07:35.728Z,14.37
2022-09-21T20:10:17.500Z,17.27
2022-09-21T20:12:49.238Z,18.73
2022-09-21T20:15:20.962Z,14.53
2022-09-21T20:17:57.350Z,13.57
2022-09-21T20:20:26.453Z,12.90
2022-09-21T20:22:53.576Z,11.00
2022-09-21T20:25:25.254Z,16.70
2022-09-21T20:27:55.997Z,11.53
2022-09-21T20:30:23.780Z,14.83
2022-09-21T20:32:51.880Z,12.10
2022-09-21T20:35:19.596Z,11.90
2022-09-21T20:37:46.274Z,19.73
2022-09-21T20:40:13.468Z,12.53
2022-09-21T20:42:40.561Z,12.83
2022-09-21T20:45:08.255Z,11.30
2022-09-21T20:47:34.971Z,14.67
2022-09-21T20:50:01.523Z,13.90
2022-09-21T20:52:27.873Z,9.93
2022-09-21T20:54:54.270Z,12.43
2022-09-21T20:57:20.597Z,12.33
2022-09-21T20:59:47.030Z,12.03
2022-09-21T21:02:14.014Z,12.80
2022-09-21T21:04:40.393Z,12.60
2022-09-21T21:07:06.906Z,13.10
2022-09-21T21:09:33.275Z,13.57
2022-09-21T21:11:59.917Z,17.17
2022-09-21T21:14:26.241Z,17.67
2022-09-21T21:16:52.766Z,14.83
2022-09-21T21:19:19.526Z,15.13
2022-09-21T21:21:45.861Z,13.37
2022-09-21T21:24:30.996Z,11.80
2022-09-21T21:27:02.291Z,13.87
2022-09-21T21:29:29.384Z,12.40
2022-09-21T21:31:55.965Z,13.27
2022-09-21T21:34:23.213Z,14.13
2022-09-21T21:36:49.657Z,12.83
2022-09-21T21:39:16.014Z,11.43
2022-09-21T21:41:43.548Z,11.97
2022-09-21T21:44:11.342Z,19.30
2022-09-21T21:46:37.677Z,13.33
2022-09-21T21:49:04.756Z,13.77
2022-09-21T21:51:31.305Z,14.93
2022-09-21T21:53:57.719Z,12.73
2022-09-21T21:56:24.062Z,16.30
2022-09-21T21:58:54.383Z,14.07
2022-09-21T22:01:22.470Z,16.33
2022-09-21T22:03:52.858Z,14.03
2022-09-21T22:06:19.362Z,13.23
2022-09-21T22:08:45.843Z,15.93
2022-09-21T22:11:12.619Z,13.97
2022-09-21T22:13:39.587Z,11.50
2022-09-21T22:16:07.522Z,16.67
2022-09-21T22:18:36.052Z,15.07
2022-09-21T22:21:06.173Z,12.70
2022-09-21T22:23:32.799Z,13.20
2022-09-21T22:26:12.990Z,10.73
2022-09-21T22:28:40.482Z,12.47
2022-09-21T22:31:11.152Z,13.70
2022-09-21T22:33:38.014Z,11.87
2022-09-21T22:36:05.870Z,11.50
2022-09-21T22:38:32.858Z,14.10
2022-09-21T22:41:06.286Z,13.60
2022-09-21T22:43:33.050Z,18.10
2022-09-21T22:45:59.954Z,12.50
2022-09-21T22:48:26.643Z,14.87
2022-09-21T22:50:53.249Z,15.53
2022-09-21T22:53:19.637Z,11.63
2022-09-21T22:55:46.070Z,13.37
2022-09-21T22:58:12.542Z,13.53
2022-09-21T23:00:39.036Z,11.87
2022-09-21T23:03:06.062Z,10.57
2022-09-21T23:05:32.417Z,11.00
2022-09-21T23:07:58.963Z,13.03
2022-09-21T23:10:26.652Z,13.07
2022-09-21T23:12:53.642Z,12.87
2022-09-21T23:15:20.185Z,13.03
2022-09-21T23:17:46.590Z,14.33
2022-09-21T23:20:13.143Z,15.67
2022-09-21T23:22:39.748Z,15.00
2022-09-21T23:25:06.782Z,12.53
2022-09-21T23:27:33.157Z,12.63
2022-09-21T23:29:59.489Z,10.77
2022-09-21T23:32:26.119Z,14.70
2022-09-21T23:34:52.589Z,13.67
2022-09-21T23:37:18.937Z,16.73
2022-09-21T23:39:45.398Z,19.10
2022-09-21T23:42:11.781Z,19.27
2022-09-21T23:44:38.186Z,14.87
2022-09-21T23:47:04.598Z,14.20
2022-09-21T23:49:30.995Z,14.57
2022-09-21T23:51:57.429Z,20.10
2022-09-21T23:54:23.803Z,13.63
2022-09-21T23:56:50.218Z,13.17
2022-09-21T23:59:16.662Z,13.33
